createdAt,value
2023-01-25T00:01:17.069Z,102411.69
2023-01-25T00:03:44.927Z,102416.36
2023-01-25T00:06:12.834Z,102408.23
2023-01-25T00:08:40.963Z,102405.52
2023-01-25T00:11:08.884Z,102404.83
2023-01-25T00:13:36.840Z,102406.65
2023-01-25T00:16:05.315Z,102408.36
2023-01-25T00:18:33.446Z,102411.13
2023-01-25T00:21:15.807Z,102413.11
2023-01-25T00:23:43.977Z,102411.35
2023-01-25T00:26:12.563Z,102413.41
2023-01-25T00:28:40.744Z,102416.85
2023-01-25T00:31:16.764Z,102418.81
2023-01-25T00:33:52.336Z,102418.36
2023-01-25T00:36:29.097Z,102408.88
2023-01-25T00:38:57.794Z,102400.95
2023-01-25T00:41:26.395Z,102399.83
2023-01-25T00:43:55.100Z,102395.86
2023-01-25T00:46:23.238Z,102395.38
2023-01-25T00:48:54.736Z,102394.96
2023-01-25T00:51:23.845Z,102393.24
2023-01-25T00:53:52.494Z,102392.60
2023-01-25T00:56:20.556Z,102393.91
2023-01-25T00:58:48.632Z,102390.76
2023-01-25T01:01:18.639Z,102391.27
2023-01-25T01:03:46.595Z,102387.91
2023-01-25T01:06:14.654Z,102383.91
2023-01-25T01:08:42.733Z,102388.56
2023-01-25T01:11:12.654Z,102384.77
2023-01-25T01:13:40.848Z,102384.22
2023-01-25T01:16:12.101Z,102376.42
2023-01-25T01:18:45.805Z,102379.98
2023-01-25T01:21:14.413Z,102378.15
2023-01-25T01:23:42.432Z,102372.80
2023-01-25T01:26:13.390Z,102366.33
2023-01-25T01:28:42.237Z,102367.52
2023-01-25T01:31:21.745Z,102367.14
2023-01-25T01:34:00.912Z,102370.20
2023-01-25T01:36:35.280Z,102368.14
2023-01-25T01:39:03.611Z,102371.46
2023-01-25T01:41:31.550Z,102366.44
2023-01-25T01:43:59.923Z,102365.72
2023-01-25T01:46:30.013Z,102367.04
2023-01-25T01:49:16.670Z,102362.05
2023-01-25T01:51:57.817Z,102364.48
2023-01-25T01:54:34.930Z,102361.32
2023-01-25T01:57:14.962Z,102354.00
2023-01-25T01:59:51.005Z,102354.54
2023-01-25T02:05:03.369Z,102358.85
2023-01-25T02:07:35.323Z,102358.02
2023-01-25T02:10:07.023Z,102359.68
2023-01-25T02:12:37.141Z,102361.39
2023-01-25T02:15:07.097Z,102363.13
2023-01-25T02:17:37.625Z,102359.21
2023-01-25T02:20:08.494Z,102360.64
2023-01-25T02:22:44.127Z,102358.64
2023-01-25T02:25:14.288Z,102356.16
2023-01-25T02:27:53.224Z,102350.36
2023-01-25T02:30:21.415Z,102344.95
2023-01-25T02:32:49.643Z,102344.52
2023-01-25T02:35:22.493Z,102339.40
2023-01-25T02:37:51.846Z,102336.20
2023-01-25T02:40:20.390Z,102331.41
2023-01-25T02:42:48.657Z,102325.67
2023-01-25T02:45:19.665Z,102325.59
2023-01-25T02:47:48.695Z,102324.88
2023-01-25T02:50:17.299Z,102322.14
2023-01-25T02:52:45.314Z,102321.91
2023-01-25T02:55:13.434Z,102321.42
2023-01-25T02:57:42.006Z,102319.77
2023-01-25T03:00:10.970Z,102318.48
2023-01-25T03:02:38.909Z,102319.48
2023-01-25T03:05:07.538Z,102320.27
2023-01-25T03:07:36.128Z,102319.29
2023-01-25T03:10:05.551Z,102321.27
2023-01-25T03:12:34.956Z,102319.91
2023-01-25T03:15:03.906Z,102315.80
2023-01-25T03:17:31.959Z,102310.45
2023-01-25T03:19:59.772Z,102306.28
2023-01-25T03:22:27.830Z,102302.98
2023-01-25T03:24:57.338Z,102295.05
2023-01-25T03:27:25.419Z,102288.54
2023-01-25T03:30:03.977Z,102288.67
2023-01-25T03:32:33.939Z,102284.80
2023-01-25T03:35:06.620Z,102282.52
2023-01-25T03:37:34.745Z,102280.23
2023-01-25T03:40:05.097Z,102279.99
2023-01-25T03:42:33.687Z,102280.13
2023-01-25T03:45:02.101Z,102276.85
2023-01-25T03:47:30.097Z,102277.71
2023-01-25T03:49:58.218Z,102273.21
2023-01-25T03:52:42.133Z,102268.36
2023-01-25T03:55:15.505Z,102269.02
2023-01-25T03:57:43.734Z,102260.78
2023-01-25T04:04:55.368Z,102256.63
2023-01-25T04:07:23.945Z,102252.92
2023-01-25T04:09:52.172Z,102252.73
2023-01-25T04:12:20.253Z,102257.42
2023-01-25T04:14:48.208Z,102262.07
2023-01-25T04:17:22.715Z,102250.14
2023-01-25T04:19:54.238Z,102247.57
2023-01-25T04:22:25.811Z,102253.46
2023-01-25T04:24:55.358Z,102248.65
2023-01-25T04:27:23.567Z,102231.90
2023-01-25T04:34:37.898Z,102247.47
2023-01-25T04:37:08.444Z,102250.22
2023-01-25T04:39:43.482Z,102251.39
2023-01-25T04:42:11.571Z,102248.14
2023-01-25T04:44:39.789Z,102241.79
2023-01-25T04:47:07.823Z,102251.07
2023-01-25T04:49:35.913Z,102242.34
2023-01-25T04:52:04.286Z,102240.84
2023-01-25T04:54:32.591Z,102232.50
2023-01-25T04:57:00.736Z,102230.38
2023-01-25T04:59:29.031Z,102234.05
2023-01-25T05:01:56.976Z,102229.89
2023-01-25T05:04:25.267Z,102230.86
2023-01-25T05:06:53.471Z,102238.98
2023-01-25T05:09:21.721Z,102236.04
2023-01-25T05:11:49.887Z,102232.87
2023-01-25T05:14:26.218Z,102233.81
2023-01-25T05:16:54.506Z,102230.45
2023-01-25T05:19:23.307Z,102229.54
2023-01-25T05:22:00.337Z,102227.74
2023-01-25T05:24:34.103Z,102229.38
2023-01-25T05:27:05.024Z,102226.34
2023-01-25T05:29:53.562Z,102220.54
2023-01-25T05:32:24.623Z,102231.42
2023-01-25T05:34:52.869Z,102232.34
2023-01-25T05:37:22.072Z,102235.23
2023-01-25T05:39:56.194Z,102235.86
2023-01-25T05:42:24.949Z,102227.25
2023-01-25T05:44:54.014Z,102219.98
2023-01-25T05:47:22.010Z,102221.86
2023-01-25T05:49:49.997Z,102218.36
2023-01-25T05:52:26.967Z,102221.41
2023-01-25T05:54:55.170Z,102223.14
2023-01-25T05:57:24.882Z,102216.56
2023-01-25T05:59:52.853Z,102217.48
2023-01-25T06:02:21.300Z,102220.27
2023-01-25T06:04:49.364Z,102222.53
2023-01-25T06:07:17.357Z,102224.00
2023-01-25T06:09:45.628Z,102217.81
2023-01-25T06:12:13.685Z,102212.66
2023-01-25T06:14:42.480Z,102218.33
2023-01-25T06:17:11.319Z,102218.12
2023-01-25T06:20:12.446Z,102210.48
2023-01-25T06:22:59.308Z,102204.49
2023-01-25T06:25:27.812Z,102204.10
2023-01-25T06:27:55.900Z,102200.63
2023-01-25T06:30:24.009Z,102202.48
2023-01-25T06:32:52.092Z,102197.98
2023-01-25T06:35:20.105Z,102196.23
2023-01-25T06:37:47.983Z,102195.52
2023-01-25T06:40:16.435Z,102197.95
2023-01-25T06:42:45.384Z,102196.28
2023-01-25T06:45:13.598Z,102198.85
2023-01-25T06:47:41.828Z,102190.94
2023-01-25T06:50:10.807Z,102187.90
2023-01-25T06:52:38.861Z,102194.13
2023-01-25T06:55:10.365Z,102199.70
2023-01-25T06:57:38.447Z,102198.61
2023-01-25T07:00:06.966Z,102199.83
2023-01-25T07:02:39.017Z,102197.63
2023-01-25T07:05:07.617Z,102194.28
2023-01-25T07:07:35.613Z,102193.58
2023-01-25T07:10:04.243Z,102192.45
2023-01-25T07:12:32.399Z,102189.01
2023-01-25T07:15:00.377Z,102185.27
2023-01-25T07:17:28.483Z,102179.17
2023-01-25T07:19:56.377Z,102179.56
2023-01-25T07:22:24.261Z,102176.60
2023-01-25T07:24:53.906Z,102174.44
2023-01-25T07:27:21.815Z,102167.25
2023-01-25T07:29:49.720Z,102161.14
2023-01-25T07:32:17.564Z,102162.70
2023-01-25T07:34:46.328Z,102159.88
2023-01-25T07:37:14.400Z,102161.52
2023-01-25T07:39:48.190Z,102157.36
2023-01-25T07:42:16.433Z,102159.49
2023-01-25T07:44:52.687Z,102157.03
2023-01-25T07:47:21.244Z,102159.13
2023-01-25T07:49:49.287Z,102158.72
2023-01-25T07:52:17.245Z,102160.84
2023-01-25T07:54:48.390Z,102156.04
2023-01-25T07:57:21.549Z,102151.23
2023-01-25T07:59:52.389Z,102153.67
2023-01-25T08:02:20.766Z,102154.74
2023-01-25T08:04:48.946Z,102154.22
2023-01-25T08:07:17.011Z,102151.75
2023-01-25T08:09:44.943Z,102146.10
2023-01-25T08:12:13.049Z,102145.68
2023-01-25T08:14:41.014Z,102149.33
2023-01-25T08:17:08.904Z,102147.39
2023-01-25T08:19:37.106Z,102145.71
2023-01-25T08:22:08.091Z,102142.38
2023-01-25T08:24:36.070Z,102148.84
2023-01-25T08:27:05.126Z,102148.31
2023-01-25T08:29:32.992Z,102143.97
2023-01-25T08:32:04.475Z,102136.31
2023-01-25T08:34:32.499Z,102136.06
2023-01-25T08:37:00.867Z,102137.52
2023-01-25T08:39:28.876Z,102128.81
2023-01-25T08:41:57.001Z,102122.38
2023-01-25T08:44:26.051Z,102121.80
2023-01-25T08:46:53.953Z,102121.91
2023-01-25T08:49:21.921Z,102118.24
2023-01-25T08:51:50.657Z,102120.08
2023-01-25T08:54:19.014Z,102119.66
2023-01-25T08:56:47.508Z,102120.44
2023-01-25T08:59:15.427Z,102123.73
2023-01-25T09:01:43.411Z,102116.80
2023-01-25T09:04:12.412Z,102117.46
2023-01-25T09:06:40.555Z,102118.95
2023-01-25T09:09:08.737Z,102113.23
2023-01-25T09:11:38.177Z,102107.20
2023-01-25T09:14:06.422Z,102107.25
2023-01-25T09:16:35.319Z,102101.95
2023-01-25T09:19:05.382Z,102104.16
2023-01-25T09:21:33.998Z,102104.12
2023-01-25T09:24:09.289Z,102105.34
2023-01-25T09:26:42.912Z,102111.03
2023-01-25T09:29:12.239Z,102102.39
2023-01-25T09:31:41.083Z,102100.17
2023-01-25T09:34:41.652Z,102099.06
2023-01-25T09:37:09.563Z,102093.79
2023-01-25T09:39:37.513Z,102085.96
2023-01-25T09:42:15.580Z,102078.70
2023-01-25T09:45:00.900Z,102078.17
2023-01-25T09:47:46.951Z,102076.15
2023-01-25T09:50:27.785Z,102071.19
2023-01-25T09:53:28.531Z,102063.35
2023-01-25T09:56:01.373Z,102066.73
2023-01-25T09:58:43.835Z,102069.13
2023-01-25T10:01:39.093Z,102061.69
2023-01-25T10:04:26.957Z,102057.63
2023-01-25T10:07:02.030Z,102059.54
2023-01-25T10:09:42.762Z,102056.94
2023-01-25T10:12:22.665Z,102056.77
2023-01-25T10:14:52.100Z,102049.11
2023-01-25T10:17:40.546Z,102040.54
2023-01-25T10:20:20.074Z,102032.05
2023-01-25T10:22:53.282Z,102029.82
2023-01-25T10:26:01.865Z,102022.17
2023-01-25T10:29:02.852Z,102015.86
2023-01-25T10:31:36.688Z,102013.84
2023-01-25T10:34:24.353Z,102013.23
2023-01-25T10:36:56.294Z,102006.84
2023-01-25T10:39:24.375Z,101999.58
2023-01-25T10:42:03.243Z,101997.98
2023-01-25T10:44:31.396Z,101996.83
2023-01-25T10:47:23.601Z,101994.02
2023-01-25T10:49:56.891Z,101993.48
2023-01-25T10:52:34.250Z,101990.23
2023-01-25T10:55:14.311Z,101983.23
2023-01-25T10:57:49.157Z,101982.94
2023-01-25T11:04:36.979Z,101979.45
2023-01-25T11:07:05.946Z,101973.65
2023-01-25T11:09:39.234Z,101970.70
2023-01-25T11:12:19.354Z,101963.63
2023-01-25T11:14:49.966Z,101959.34
2023-01-25T11:17:27.940Z,101953.32
2023-01-25T11:20:18.556Z,101948.54
2023-01-25T11:22:57.540Z,101941.89
2023-01-25T11:25:44.424Z,101936.06
2023-01-25T11:28:24.043Z,101933.91
2023-01-25T11:30:53.391Z,101930.17
2023-01-25T11:33:22.368Z,101929.48
2023-01-25T11:36:30.984Z,101927.42
2023-01-25T11:39:29.677Z,101922.38
2023-01-25T11:42:31.576Z,101919.26
2023-01-25T11:45:08.344Z,101920.44
2023-01-25T11:47:57.456Z,101922.05
2023-01-25T11:50:39.097Z,101917.30
2023-01-25T11:53:26.006Z,101917.23
2023-01-25T11:56:02.946Z,101919.90
2023-01-25T11:59:12.080Z,101916.29
2023-01-25T12:01:56.187Z,101917.80
2023-01-25T12:04:49.834Z,101917.89
2023-01-25T12:07:43.228Z,101908.92
2023-01-25T12:10:26.942Z,101903.25
2023-01-25T12:13:03.873Z,101890.09
2023-01-25T12:16:09.934Z,101884.92
2023-01-25T12:19:05.526Z,101877.69
2023-01-25T12:21:42.419Z,101869.69
2023-01-25T12:24:37.642Z,101872.21
2023-01-25T12:27:25.976Z,101860.58
2023-01-25T12:29:59.026Z,101854.82
2023-01-25T12:32:50.648Z,101859.39
2023-01-25T12:35:21.557Z,101856.66
2023-01-25T12:37:53.050Z,101848.02
2023-01-25T12:40:32.455Z,101839.09
2023-01-25T12:43:01.688Z,101841.45
2023-01-25T12:45:34.403Z,101841.04
2023-01-25T12:48:30.204Z,101839.30
2023-01-25T12:50:59.879Z,101839.90
2023-01-25T12:53:36.187Z,101842.58
2023-01-25T12:56:09.358Z,101837.94
2023-01-25T12:59:30.640Z,101840.34
2023-01-25T13:02:10.918Z,101836.69
2023-01-25T13:05:00.183Z,101832.00
2023-01-25T13:07:37.907Z,101832.88
2023-01-25T13:10:12.458Z,101836.86
2023-01-25T13:13:05.291Z,101831.66
2023-01-25T13:15:45.016Z,101829.95
2023-01-25T13:18:28.118Z,101828.29
2023-01-25T13:20:58.288Z,101828.86
2023-01-25T13:23:47.211Z,101826.48
2023-01-25T13:26:20.969Z,101822.86
2023-01-25T13:28:51.632Z,101820.89
2023-01-25T13:31:51.089Z,101817.23
2023-01-25T13:34:42.409Z,101814.05
2023-01-25T13:37:19.187Z,101808.44
2023-01-25T13:39:48.281Z,101808.68
2023-01-25T13:42:28.115Z,101807.81
2023-01-25T13:45:00.016Z,101797.72
2023-01-25T13:47:39.638Z,101795.83
2023-01-25T13:50:27.021Z,101788.62
2023-01-25T13:53:00.677Z,101786.85
2023-01-25T13:55:30.063Z,101780.27
2023-01-25T13:58:34.359Z,101778.48
2023-01-25T14:01:08.365Z,101775.08
2023-01-25T14:03:50.366Z,101774.54
2023-01-25T14:06:20.376Z,101766.38
2023-01-25T14:08:50.476Z,101766.00
2023-01-25T14:11:22.972Z,101767.27
2023-01-25T14:14:17.065Z,101767.13
2023-01-25T14:16:45.290Z,101762.54
2023-01-25T14:19:29.818Z,101756.46
2023-01-25T14:22:27.118Z,101758.77
2023-01-25T14:25:11.968Z,101753.42
2023-01-25T14:27:58.985Z,101753.61
2023-01-25T14:30:30.623Z,101753.63
2023-01-25T14:33:04.689Z,101749.98
2023-01-25T14:38:27.825Z,101739.95
2023-01-25T14:41:03.661Z,101734.20
2023-01-25T14:43:32.547Z,101735.23
2023-01-25T14:46:00.510Z,101730.89
2023-01-25T14:48:42.400Z,101724.69
2023-01-25T14:51:18.470Z,101722.01
2023-01-25T14:53:50.875Z,101714.88
2023-01-25T14:56:26.158Z,101711.87
2023-01-25T14:58:59.858Z,101710.55
2023-01-25T15:01:38.192Z,101711.38
2023-01-25T15:04:12.957Z,101701.99
2023-01-25T15:06:52.493Z,101698.20
2023-01-25T15:09:43.234Z,101696.48
2023-01-25T15:12:17.268Z,101693.14
2023-01-25T15:14:49.716Z,101692.79
2023-01-25T15:17:44.469Z,101688.64
2023-01-25T15:20:40.617Z,101679.95
2023-01-25T15:23:25.834Z,101678.72
2023-01-25T15:25:59.388Z,101676.46
2023-01-25T15:28:30.384Z,101672.33
2023-01-25T15:30:59.478Z,101671.55
2023-01-25T15:33:29.946Z,101673.29
2023-01-25T15:35:58.840Z,101672.30
2023-01-25T15:38:26.670Z,101667.23
2023-01-25T15:41:00.872Z,101660.75
2023-01-25T15:43:28.822Z,101660.60
2023-01-25T15:45:57.707Z,101659.43
2023-01-25T15:48:42.611Z,101660.74
2023-01-25T15:51:12.632Z,101658.75
2023-01-25T15:53:40.745Z,101657.29
2023-01-25T15:56:15.827Z,101654.04
2023-01-25T15:58:47.671Z,101655.92
2023-01-25T16:01:15.445Z,101652.27
2023-01-25T16:03:43.453Z,101648.05
2023-01-25T16:06:34.702Z,101646.15
2023-01-25T16:09:16.454Z,101647.61
2023-01-25T16:11:45.448Z,101646.20
2023-01-25T16:14:13.516Z,101644.52
2023-01-25T16:16:47.707Z,101640.50
2023-01-25T16:19:22.882Z,101635.89
2023-01-25T16:21:51.421Z,101634.43
2023-01-25T16:24:19.423Z,101630.85
2023-01-25T16:26:53.481Z,101624.44
2023-01-25T16:29:23.115Z,101619.59
2023-01-25T16:31:52.389Z,101617.45
2023-01-25T16:34:21.103Z,101618.19
2023-01-25T16:36:53.140Z,101616.50
2023-01-25T16:39:22.243Z,101616.75
2023-01-25T16:41:51.004Z,101613.06
2023-01-25T16:44:19.369Z,101611.45
2023-01-25T16:46:51.196Z,101609.45
2023-01-25T16:49:18.874Z,101607.52
2023-01-25T16:51:48.973Z,101598.44
2023-01-25T16:54:16.814Z,101597.50
2023-01-25T16:56:44.650Z,101595.47
2023-01-25T16:59:12.591Z,101593.84
2023-01-25T17:01:42.523Z,101590.36
2023-01-25T17:04:10.825Z,101589.40
2023-01-25T17:06:43.019Z,101577.86
2023-01-25T17:09:23.049Z,101572.88
2023-01-25T17:11:52.868Z,101568.79
2023-01-25T17:14:21.612Z,101561.20
2023-01-25T17:16:51.853Z,101555.05
2023-01-25T17:19:26.240Z,101559.30
2023-01-25T17:21:54.210Z,101562.70
2023-01-25T17:24:22.273Z,101558.89
2023-01-25T17:26:51.472Z,101560.81
2023-01-25T17:29:19.430Z,101557.40
2023-01-25T17:31:48.405Z,101548.73
2023-01-25T17:34:18.224Z,101548.79
2023-01-25T17:36:46.636Z,101546.28
2023-01-25T17:39:16.647Z,101542.02
2023-01-25T17:41:46.030Z,101537.63
2023-01-25T17:44:17.746Z,101540.95
2023-01-25T17:46:45.637Z,101540.80
2023-01-25T17:49:16.970Z,101537.98
2023-01-25T17:51:45.358Z,101535.44
2023-01-25T17:54:13.398Z,101529.43
2023-01-25T17:56:41.366Z,101518.80
2023-01-25T17:59:11.338Z,101518.50
2023-01-25T18:01:39.971Z,101514.59
2023-01-25T18:04:09.241Z,101511.11
2023-01-25T18:06:37.298Z,101515.77
2023-01-25T18:09:08.624Z,101509.23
2023-01-25T18:11:38.266Z,101508.87
2023-01-25T18:14:09.435Z,101504.29
2023-01-25T18:16:39.613Z,101506.09
2023-01-25T18:19:08.763Z,101507.59
2023-01-25T18:21:37.515Z,101514.66
2023-01-25T18:24:22.759Z,101514.64
2023-01-25T18:26:52.031Z,101510.38
2023-01-25T18:29:49.163Z,101504.45
2023-01-25T18:32:17.164Z,101511.65
2023-01-25T18:34:46.897Z,101513.09
2023-01-25T18:37:18.678Z,101510.84
2023-01-25T18:39:48.501Z,101512.25
2023-01-25T18:42:16.491Z,101513.42
2023-01-25T18:44:48.406Z,101506.88
2023-01-25T18:47:21.357Z,101503.22
2023-01-25T18:49:50.926Z,101505.64
2023-01-25T18:52:21.943Z,101501.29
2023-01-25T18:54:49.882Z,101497.88
2023-01-25T18:57:18.233Z,101495.73
2023-01-25T18:59:46.263Z,101494.55
2023-01-25T19:04:34.877Z,101487.38
2023-01-25T19:07:03.027Z,101485.34
2023-01-25T19:09:31.340Z,101480.36
2023-01-25T19:11:59.453Z,101476.56
2023-01-25T19:14:27.524Z,101478.81
2023-01-25T19:16:55.681Z,101482.73
2023-01-25T19:19:23.872Z,101481.80
2023-01-25T19:21:51.981Z,101479.05
2023-01-25T19:24:20.872Z,101475.39
2023-01-25T19:26:48.923Z,101470.30
2023-01-25T19:29:17.100Z,101472.84
2023-01-25T19:31:45.090Z,101471.89
2023-01-25T19:34:13.345Z,101467.52
2023-01-25T19:36:49.569Z,101462.23
2023-01-25T19:39:18.263Z,101457.84
2023-01-25T19:41:46.301Z,101457.41
2023-01-25T19:44:15.362Z,101451.48
2023-01-25T19:46:43.605Z,101445.12
2023-01-25T19:49:13.304Z,101442.34
2023-01-25T19:51:45.482Z,101441.10
2023-01-25T19:54:16.793Z,101446.40
2023-01-25T19:56:47.059Z,101445.16
2023-01-25T19:59:25.007Z,101443.24
2023-01-25T20:01:53.945Z,101442.20
2023-01-25T20:04:23.733Z,101436.84
2023-01-25T20:06:52.739Z,101425.90
2023-01-25T20:09:25.087Z,101424.40
2023-01-25T20:11:54.504Z,101423.71
2023-01-25T20:14:23.003Z,101417.55
2023-01-25T20:16:53.182Z,101413.00
2023-01-25T20:19:21.431Z,101406.13
2023-01-25T20:21:49.545Z,101406.66
2023-01-25T20:24:17.969Z,101398.27
2023-01-25T20:26:46.316Z,101396.81
2023-01-25T20:29:14.324Z,101394.97
2023-01-25T20:31:46.773Z,101390.29
2023-01-25T20:34:17.513Z,101389.09
2023-01-25T20:36:46.038Z,101385.21
2023-01-25T20:39:16.111Z,101386.92
2023-01-25T20:41:44.259Z,101386.09
2023-01-25T20:44:15.284Z,101382.20
2023-01-25T20:46:44.038Z,101377.58
2023-01-25T20:49:17.967Z,101381.96
2023-01-25T20:51:46.794Z,101377.99
2023-01-25T20:54:15.754Z,101377.84
2023-01-25T20:56:47.835Z,101375.80
2023-01-25T20:59:17.813Z,101375.24
2023-01-25T21:01:46.710Z,101378.29
2023-01-25T21:04:14.981Z,101376.90
2023-01-25T21:06:43.052Z,101374.45
2023-01-25T21:09:12.278Z,101366.11
2023-01-25T21:11:40.179Z,101364.58
2023-01-25T21:14:08.161Z,101360.33
2023-01-25T21:16:36.059Z,101362.78
2023-01-25T21:19:06.150Z,101364.33
2023-01-25T21:21:34.984Z,101366.88
2023-01-25T21:24:05.467Z,101368.95
2023-01-25T21:26:35.219Z,101365.55
2023-01-25T21:29:04.393Z,101363.02
2023-01-25T21:31:35.110Z,101360.10
2023-01-25T21:34:04.755Z,101361.63
2023-01-25T21:36:33.183Z,101362.02
2023-01-25T21:39:01.440Z,101357.45
2023-01-25T21:41:33.843Z,101356.13
2023-01-25T21:44:21.460Z,101350.16
2023-01-25T21:47:16.259Z,101347.50
2023-01-25T21:49:56.006Z,101346.59
2023-01-25T21:52:23.932Z,101342.79
2023-01-25T21:54:51.880Z,101343.61
2023-01-25T21:57:20.608Z,101341.32
2023-01-25T21:59:49.002Z,101343.21
2023-01-25T22:02:17.418Z,101339.27
2023-01-25T22:04:54.882Z,101340.67
2023-01-25T22:07:22.870Z,101341.17
2023-01-25T22:09:50.923Z,101344.86
2023-01-25T22:12:19.041Z,101347.98
2023-01-25T22:14:47.367Z,101349.70
2023-01-25T22:17:15.453Z,101344.89
2023-01-25T22:19:43.729Z,101346.21
2023-01-25T22:22:11.618Z,101342.02
2023-01-25T22:24:39.642Z,101335.19
2023-01-25T22:27:26.324Z,101327.76
2023-01-25T22:29:54.476Z,101330.73
2023-01-25T22:32:22.463Z,101329.85
2023-01-25T22:34:50.500Z,101328.14
2023-01-25T22:37:18.491Z,101323.59
2023-01-25T22:39:47.076Z,101322.55
2023-01-25T22:42:15.119Z,101316.04
2023-01-25T22:44:43.177Z,101313.29
2023-01-25T22:47:11.212Z,101309.38
2023-01-25T22:49:39.110Z,101307.67
2023-01-25T22:52:07.067Z,101306.05
2023-01-25T22:54:35.560Z,101303.09
2023-01-25T22:57:03.502Z,101298.89
2023-01-25T22:59:31.506Z,101296.32
2023-01-25T23:01:59.414Z,101298.59
2023-01-25T23:04:27.549Z,101291.20
2023-01-25T23:07:02.873Z,101291.56
2023-01-25T23:09:31.064Z,101292.21
2023-01-25T23:11:59.327Z,101289.06
2023-01-25T23:14:45.826Z,101285.86
2023-01-25T23:17:32.534Z,101280.29
2023-01-25T23:20:00.595Z,101274.07
2023-01-25T23:22:28.669Z,101270.23
2023-01-25T23:24:56.738Z,101263.83
2023-01-25T23:27:24.837Z,101257.62
2023-01-25T23:29:53.236Z,101250.15
2023-01-25T23:32:21.693Z,101246.48
2023-01-25T23:34:53.383Z,101245.17
2023-01-25T23:37:22.138Z,101244.02
2023-01-25T23:39:50.586Z,101240.27
2023-01-25T23:42:19.129Z,101239.18
2023-01-25T23:44:47.247Z,101237.88
2023-01-25T23:47:15.549Z,101234.43
2023-01-25T23:49:43.632Z,101233.56
2023-01-25T23:52:11.574Z,101232.55
2023-01-25T23:54:39.763Z,101228.80
2023-01-25T23:57:07.823Z,101222.95
2023-01-25T23:59:35.690Z,101223.23
